Time;durP1;ratioP1;P1;durP2;ratioP2;P2;SDS_P1;SDS_P2;PMS_P1;PMS_P2;Temp;Humidity;BMP_temperature;BMP_pressure;BME280_temperature;BME280_humidity;BME280_pressure;Samples;Min_cycle;Max_cycle;Signal;HPM_P1;HPM_P2
2021/08/01 00:00:11;;;;;;;4.87;4.30;;;20.50;99.90;;;;;;5074716;28;20519;-54
2021/08/01 00:02:36;;;;;;;5.00;4.37;;;20.50;99.90;;;;;;5074061;28;20232;-50
2021/08/01 00:05:02;;;;;;;4.77;4.23;;;20.40;99.90;;;;;;5056675;28;20189;-50
2021/08/01 00:07:28;;;;;;;4.30;3.90;;;20.40;99.90;;;;;;5055059;28;20179;-51
2021/08/01 00:10:00;;;;;;;5.00;3.90;;;20.40;99.90;;;;;;5056105;28;20250;-51
2021/08/01 00:12:26;;;;;;;4.80;4.07;;;20.30;99.90;;;;;;5073668;28;20178;-55
2021/08/01 00:14:53;;;;;;;4.47;3.60;;;20.30;99.90;;;;;;5074041;28;20221;-50
2021/08/01 00:17:18;;;;;;;5.13;4.30;;;20.40;99.90;;;;;;5073420;28;20575;-55
2021/08/01 00:19:44;;;;;;;7.60;4.20;;;20.40;99.90;;;;;;5073593;28;20726;-49
2021/08/01 00:22:10;;;;;;;4.97;4.33;;;20.60;99.90;;;;;;5073584;28;20642;-50
2021/08/01 00:24:35;;;;;;;4.20;3.80;;;20.60;99.90;;;;;;5073974;28;20194;-51
2021/08/01 00:27:01;;;;;;;5.27;4.20;;;20.70;99.90;;;;;;5073970;28;20265;-50
2021/08/01 00:29:27;;;;;;;5.93;4.57;;;20.70;99.90;;;;;;5074365;28;20198;-53
2021/08/01 00:31:52;;;;;;;6.50;3.97;;;20.80;99.90;;;;;;5073904;28;20178;-50
2021/08/01 00:34:18;;;;;;;5.10;4.23;;;20.80;99.90;;;;;;5073311;28;20218;-49
2021/08/01 00:36:44;;;;;;;4.70;4.20;;;21.00;99.90;;;;;;5073948;28;20189;-50
2021/08/01 00:39:11;;;;;;;5.83;4.40;;;20.80;99.90;;;;;;5072818;28;20190;-49
2021/08/01 00:41:37;;;;;;;4.97;4.13;;;20.80;99.90;;;;;;5073533;28;20538;-51
2021/08/01 00:44:02;;;;;;;6.67;4.30;;;20.60;99.90;;;;;;5073550;28;20693;-54
2021/08/01 00:46:28;;;;;;;4.33;3.93;;;20.60;99.90;;;;;;5073556;28;20267;-49
2021/08/01 00:48:54;;;;;;;4.70;4.27;;;20.50;99.90;;;;;;5073583;28;20586;-50
2021/08/01 00:51:19;;;;;;;4.50;4.10;;;20.50;99.90;;;;;;5073635;28;20179;-56
2021/08/01 00:53:45;;;;;;;4.67;4.00;;;20.60;99.90;;;;;;5073323;28;20194;-51
2021/08/01 00:56:11;;;;;;;4.20;3.77;;;20.60;99.90;;;;;;5073445;28;20185;-51
2021/08/01 00:58:36;;;;;;;6.50;4.17;;;20.70;99.90;;;;;;5073677;28;20177;-50
2021/08/01 01:01:07;;;;;;;4.30;3.90;;;20.60;99.90;;;;;;5073800;28;20558;-52
2021/08/01 01:04:00;;;;;;;4.07;3.77;;;20.30;99.90;;;;;;5057105;28;20293;-52
2021/08/01 01:06:40;;;;;;;4.00;3.60;;;20.30;99.90;;;;;;5073855;28;20181;-51
2021/08/01 01:09:18;;;;;;;4.30;3.90;;;20.30;99.90;;;;;;5073031;28;20206;-53
2021/08/01 01:11:47;;;;;;;5.77;4.07;;;20.30;99.90;;;;;;5073476;28;20247;-50
2021/08/01 01:14:19;;;;;;;4.63;4.23;;;20.30;99.90;;;;;;5073838;28;20225;-49
2021/08/01 01:16:50;;;;;;;4.50;3.97;;;20.40;99.90;;;;;;5073167;28;20182;-49
2021/08/01 01:19:31;;;;;;;5.10;4.60;;;20.50;99.90;;;;;;5073466;28;20191;-49
2021/08/01 01:22:12;;;;;;;7.00;4.63;;;20.60;99.90;;;;;;5073425;28;20182;-49
2021/08/01 01:24:40;;;;;;;5.80;5.20;;;20.70;99.90;;;;;;5073058;28;20210;-55
2021/08/01 01:27:24;;;;;;;6.03;4.97;;;20.70;99.90;;;;;;5073236;28;20220;-55
2021/08/01 01:30:02;;;;;;;6.17;5.57;;;20.70;99.90;;;;;;5073550;28;20267;-51
2021/08/01 01:33:03;;;;;;;6.33;5.30;;;20.70;99.90;;;;;;5072561;28;20557;-49
2021/08/01 01:35:32;;;;;;;5.30;4.80;;;20.80;99.90;;;;;;5073263;28;20638;-54
2021/08/01 01:37:58;;;;;;;10.83;5.43;;;20.80;99.90;;;;;;5073342;28;20182;-54
2021/08/01 01:40:25;;;;;;;5.83;4.87;;;20.80;99.90;;;;;;5073670;28;20205;-50
2021/08/01 01:42:55;;;;;;;6.13;5.27;;;20.80;99.90;;;;;;5072806;28;20700;-55
2021/08/01 01:45:21;;;;;;;6.43;4.97;;;20.80;99.90;;;;;;5073240;28;20182;-49
2021/08/01 01:47:50;;;;;;;7.20;5.50;;;20.80;99.90;;;;;;5053298;28;20190;-51
2021/08/01 01:50:19;;;;;;;7.17;5.17;;;20.80;99.90;;;;;;5067723;28;20264;-52
2021/08/01 01:52:48;;;;;;;7.47;6.77;;;20.80;99.90;;;;;;5074543;28;20210;-53
2021/08/01 01:55:17;;;;;;;7.03;6.17;;;20.70;99.90;;;;;;5076577;28;20182;-49
2021/08/01 01:57:44;;;;;;;7.53;5.50;;;20.50;99.90;;;;;;5076931;28;20575;-50
2021/08/01 02:00:10;;;;;;;6.17;5.57;;;20.60;99.90;;;;;;5076575;28;20273;-50
2021/08/01 02:02:36;;;;;;;5.80;5.20;;;20.50;99.90;;;;;;5076493;28;20269;-49
2021/08/01 02:05:03;;;;;;;5.30;4.80;;;20.60;99.90;;;;;;5077151;28;20258;-49
2021/08/01 02:07:30;;;;;;;5.97;5.37;;;20.60;99.90;;;;;;5077106;28;20186;-51
2021/08/01 02:10:08;;;;;;;5.50;5.00;;;20.60;99.90;;;;;;5076053;28;20352;-49
2021/08/01 02:12:42;;;;;;;6.07;5.43;;;20.70;99.90;;;;;;5076414;28;20170;-51
2021/08/01 02:15:14;;;;;;;5.43;4.93;;;20.70;99.90;;;;;;5077132;28;20367;-51
2021/08/01 02:17:51;;;;;;;6.70;5.70;;;20.60;99.90;;;;;;5076674;28;20615;-52
2021/08/01 02:20:21;;;;;;;5.80;5.30;;;20.60;99.90;;;;;;5076093;28;20225;-49
2021/08/01 02:22:47;;;;;;;5.63;4.97;;;20.60;99.90;;;;;;5076353;28;20197;-52
2021/08/01 02:25:15;;;;;;;5.70;4.80;;;20.50;99.90;;;;;;5077175;28;20174;-52
2021/08/01 02:27:42;;;;;;;5.80;5.20;;;20.60;99.90;;;;;;5075633;28;20175;-49
2021/08/01 02:30:09;;;;;;;6.20;5.60;;;20.50;99.90;;;;;;5076417;28;20722;-52
2021/08/01 02:32:35;;;;;;;5.77;5.17;;;20.50;99.90;;;;;;5075264;28;20206;-51
2021/08/01 02:35:03;;;;;;;6.20;5.60;;;20.50;99.90;;;;;;5076186;28;20175;-52
2021/08/01 02:37:28;;;;;;;6.13;5.53;;;20.40;99.90;;;;;;5076606;28;20269;-49
2021/08/01 02:39:55;;;;;;;6.67;5.23;;;20.40;99.90;;;;;;5076487;28;20257;-49
2021/08/01 02:42:25;;;;;;;6.50;5.60;;;20.40;99.90;;;;;;5075685;28;20182;-52
2021/08/01 02:44:55;;;;;;;6.57;5.57;;;20.30;99.90;;;;;;5074816;28;20187;-51
2021/08/01 02:47:23;;;;;;;7.30;5.80;;;20.20;99.90;;;;;;5076053;28;20695;-52
2021/08/01 02:49:51;;;;;;;7.03;5.73;;;20.30;99.90;;;;;;5075405;28;20229;-49
2021/08/01 02:52:21;;;;;;;8.23;5.07;;;20.40;99.90;;;;;;5076123;28;20171;-50
2021/08/01 02:54:49;;;;;;;5.63;5.07;;;20.40;99.90;;;;;;5075975;28;20664;-50
2021/08/01 02:57:17;;;;;;;6.10;5.60;;;20.50;99.90;;;;;;5076061;28;20178;-52
2021/08/01 02:59:43;;;;;;;5.73;5.23;;;20.40;99.90;;;;;;5076125;28;20178;-56
2021/08/01 03:02:10;;;;;;;5.47;4.97;;;20.40;99.90;;;;;;5075017;28;20190;-50
2021/08/01 03:04:39;;;;;;;6.43;5.40;;;20.40;99.90;;;;;;5075743;28;20194;-52
2021/08/01 03:07:10;;;;;;;5.53;5.03;;;20.50;99.90;;;;;;5075171;28;20186;-55
2021/08/01 03:09:36;;;;;;;6.23;5.63;;;20.40;99.90;;;;;;5075395;28;20254;-50
2021/08/01 03:12:12;;;;;;;6.00;5.40;;;20.30;99.90;;;;;;5074901;28;20183;-50
2021/08/01 03:14:38;;;;;;;5.77;5.13;;;20.40;99.90;;;;;;5072859;28;20233;-49
2021/08/01 03:17:04;;;;;;;5.80;5.30;;;20.30;99.90;;;;;;5075286;28;20195;-51
2021/08/01 03:19:34;;;;;;;6.23;5.43;;;20.30;99.90;;;;;;5075857;28;20236;-50
2021/08/01 03:22:00;;;;;;;6.43;5.57;;;20.30;99.90;;;;;;5075901;28;20250;-50
2021/08/01 03:24:25;;;;;;;6.40;5.40;;;20.40;99.90;;;;;;5074796;28;20297;-53
2021/08/01 03:26:51;;;;;;;5.93;5.33;;;20.30;99.90;;;;;;5075315;28;20538;-48
2021/08/01 03:29:17;;;;;;;6.20;5.60;;;20.30;99.90;;;;;;5074987;28;20244;-52
2021/08/01 03:31:42;;;;;;;5.30;4.80;;;20.20;99.90;;;;;;5075300;28;20171;-50
2021/08/01 03:34:08;;;;;;;6.93;5.23;;;20.30;99.90;;;;;;5074806;28;20246;-49
2021/08/01 03:36:33;;;;;;;6.30;5.70;;;20.40;99.90;;;;;;5075154;28;20526;-49
2021/08/01 03:38:59;;;;;;;5.47;4.97;;;20.30;99.90;;;;;;5074517;28;20547;-56
2021/08/01 03:41:27;;;;;;;6.77;5.53;;;20.30;99.90;;;;;;5074632;28;20249;-54
2021/08/01 03:43:52;;;;;;;5.80;5.10;;;20.30;99.90;;;;;;5074246;28;20202;-50
2021/08/01 03:46:18;;;;;;;9.37;5.17;;;20.30;99.90;;;;;;5075621;28;20245;-50
2021/08/01 03:48:43;;;;;;;6.07;4.87;;;20.30;99.90;;;;;;5074379;28;20178;-50
2021/08/01 03:51:09;;;;;;;6.97;5.20;;;20.20;99.90;;;;;;5074477;28;20206;-56
2021/08/01 03:53:34;;;;;;;5.50;5.00;;;20.80;99.90;;;;;;5074988;28;20205;-55
2021/08/01 03:56:03;;;;;;;5.57;5.03;;;20.30;99.90;;;;;;5074455;28;20181;-56
2021/08/01 03:58:29;;;;;;;6.93;5.50;;;20.30;99.90;;;;;;5074541;28;20653;-53
2021/08/01 04:00:55;;;;;;;6.23;5.63;;;20.30;99.90;;;;;;5073875;28;20225;-53
2021/08/01 04:03:20;;;;;;;6.53;5.80;;;20.30;99.90;;;;;;5074088;28;20222;-51
2021/08/01 04:05:46;;;;;;;6.17;5.20;;;20.20;99.90;;;;;;5074728;28;20260;-54
2021/08/01 04:08:11;;;;;;;5.60;5.10;;;20.30;99.90;;;;;;5074104;28;20257;-51
2021/08/01 04:10:37;;;;;;;6.47;5.50;;;20.30;99.90;;;;;;5073933;28;20639;-55
2021/08/01 04:13:03;;;;;;;5.60;5.10;;;20.20;99.90;;;;;;5073292;28;20521;-49
2021/08/01 04:15:29;;;;;;;5.93;5.43;;;20.10;99.90;;;;;;5073646;28;20199;-53
2021/08/01 04:17:54;;;;;;;7.17;4.80;;;20.00;99.90;;;;;;5073826;28;20210;-48
2021/08/01 04:20:20;;;;;;;5.40;4.90;;;19.80;99.90;;;;;;5074092;28;20567;-50
2021/08/01 04:22:45;;;;;;;6.10;5.23;;;19.70;99.90;;;;;;5074096;28;20217;-50
2021/08/01 04:25:11;;;;;;;6.87;5.00;;;19.70;99.90;;;;;;5073854;28;20194;-50
2021/08/01 04:27:36;;;;;;;5.27;4.80;;;19.60;99.90;;;;;;5074375;28;20181;-50
2021/08/01 04:30:03;;;;;;;4.50;4.10;;;19.50;99.90;;;;;;5074224;28;20206;-53
2021/08/01 04:32:29;;;;;;;5.20;4.63;;;19.40;99.90;;;;;;5074004;28;20202;-50
2021/08/01 04:34:54;;;;;;;4.20;3.80;;;19.30;99.90;;;;;;5073756;28;20206;-52
2021/08/01 04:37:20;;;;;;;5.30;4.03;;;19.40;99.90;;;;;;5073852;28;20266;-51
2021/08/01 04:39:45;;;;;;;4.10;3.70;;;19.60;99.90;;;;;;5073471;28;20194;-51
2021/08/01 04:42:11;;;;;;;4.37;3.97;;;19.80;99.90;;;;;;5073557;28;20179;-50
2021/08/01 04:44:36;;;;;;;4.27;3.87;;;19.90;99.90;;;;;;5073632;28;20202;-53
2021/08/01 04:47:02;;;;;;;4.23;3.83;;;20.10;99.90;;;;;;5073737;28;20531;-53
2021/08/01 04:49:27;;;;;;;5.30;4.17;;;20.20;99.90;;;;;;5073279;28;20528;-54
2021/08/01 04:51:53;;;;;;;5.23;3.97;;;20.10;99.90;;;;;;5073542;28;20265;-50
2021/08/01 04:54:18;;;;;;;5.43;3.83;;;19.90;99.90;;;;;;5073720;28;20287;-50
2021/08/01 04:56:45;;;;;;;4.20;3.80;;;19.60;99.90;;;;;;5073846;28;20183;-50
2021/08/01 04:59:14;;;;;;;4.23;3.50;;;19.60;99.90;;;;;;5073975;28;20510;-49
2021/08/01 05:01:39;;;;;;;3.70;3.40;;;19.70;99.90;;;;;;5073347;28;20539;-49
2021/08/01 05:04:05;;;;;;;4.47;3.90;;;19.80;99.90;;;;;;5073526;28;20768;-51
2021/08/01 05:06:30;;;;;;;6.03;3.77;;;20.00;99.90;;;;;;5073298;28;20254;-51
2021/08/01 05:08:56;;;;;;;3.80;3.50;;;20.00;99.90;;;;;;5072909;28;20201;-50
2021/08/01 05:11:21;;;;;;;4.60;3.60;;;20.10;99.90;;;;;;5073272;28;20186;-49
2021/08/01 05:13:47;;;;;;;4.53;3.57;;;20.20;99.90;;;;;;5073827;28;20260;-52
2021/08/01 05:16:16;;;;;;;3.50;3.20;;;20.10;99.90;;;;;;5073684;28;20530;-49
2021/08/01 05:18:43;;;;;;;4.23;3.30;;;20.20;99.90;;;;;;5073725;28;20186;-52
2021/08/01 05:21:08;;;;;;;4.40;3.40;;;20.20;99.90;;;;;;5073643;28;20186;-52
2021/08/01 05:23:34;;;;;;;3.73;3.43;;;20.30;99.90;;;;;;5073598;28;20280;-49
2021/08/01 05:25:59;;;;;;;3.73;3.43;;;20.30;99.90;;;;;;5068550;28;20190;-49
2021/08/01 05:28:25;;;;;;;3.83;3.37;;;20.40;99.90;;;;;;5073796;28;20185;-49
2021/08/01 05:30:50;;;;;;;3.67;3.37;;;20.30;99.90;;;;;;5070379;28;20226;-54
2021/08/01 05:33:16;;;;;;;3.60;3.30;;;20.40;99.90;;;;;;5070631;28;20291;-51
2021/08/01 05:35:41;;;;;;;3.50;3.10;;;20.40;99.90;;;;;;5060975;28;20183;-50
2021/08/01 05:38:07;;;;;;;3.40;3.10;;;20.30;99.90;;;;;;5077201;28;20175;-56
2021/08/01 05:40:33;;;;;;;3.37;3.07;;;20.10;99.90;;;;;;5077423;28;20189;-56
2021/08/01 05:42:59;;;;;;;3.70;3.07;;;19.80;99.90;;;;;;5076764;28;20230;-52
2021/08/01 05:45:28;;;;;;;3.97;3.00;;;19.60;99.90;;;;;;5077173;28;20181;-50
2021/08/01 05:47:54;;;;;;;5.37;3.37;;;19.70;99.90;;;;;;5076583;28;20214;-50
2021/08/01 05:50:21;;;;;;;3.40;3.10;;;19.90;99.90;;;;;;5076988;28;20208;-52
2021/08/01 05:52:47;;;;;;;3.10;2.77;;;20.10;99.90;;;;;;5075464;28;20194;-52
2021/08/01 05:55:12;;;;;;;5.23;2.90;;;20.20;99.90;;;;;;5076838;28;20200;-58
2021/08/01 05:57:38;;;;;;;3.70;3.37;;;20.30;99.90;;;;;;5075068;28;20687;-55
2021/08/01 06:00:07;;;;;;;5.60;3.07;;;20.10;99.90;;;;;;5068832;28;20187;-50
2021/08/01 06:02:32;;;;;;;3.57;3.27;;;19.90;99.90;;;;;;5086554;28;20243;-49
2021/08/01 06:04:58;;;;;;;3.47;3.17;;;19.40;99.90;;;;;;5084661;28;20179;-52
2021/08/01 06:07:23;;;;;;;3.93;3.20;;;19.40;99.90;;;;;;5081749;28;20183;-48
2021/08/01 06:09:49;;;;;;;3.60;2.83;;;19.40;99.90;;;;;;5077138;28;23603;-56
2021/08/01 06:12:15;;;;;;;4.17;3.17;;;19.60;99.90;;;;;;5080049;28;20166;-49
2021/08/01 06:14:40;;;;;;;3.93;3.50;;;19.60;99.90;;;;;;5077859;28;20198;-52
2021/08/01 06:17:06;;;;;;;3.40;3.10;;;19.60;99.90;;;;;;5088092;28;20217;-49
2021/08/01 06:19:32;;;;;;;3.57;3.07;;;19.80;99.90;;;;;;5082226;28;20239;-51
2021/08/01 06:21:57;;;;;;;4.57;3.40;;;19.70;99.90;;;;;;5078144;28;20178;-49
2021/08/01 06:24:23;;;;;;;4.27;3.20;;;19.70;99.90;;;;;;5089531;28;20205;-50
2021/08/01 06:26:49;;;;;;;3.97;3.37;;;19.90;99.90;;;;;;5079877;28;20181;-50
2021/08/01 06:29:16;;;;;;;4.83;3.10;;;20.00;99.90;;;;;;5086564;28;20213;-53
2021/08/01 06:31:42;;;;;;;4.77;3.10;;;20.10;99.90;;;;;;5082541;28;20182;-51
2021/08/01 06:34:07;;;;;;;3.20;2.90;;;20.00;99.90;;;;;;5056206;28;20207;-54
2021/08/01 06:36:33;;;;;;;4.40;3.07;;;19.80;99.90;;;;;;5063614;28;20208;-50
2021/08/01 06:38:58;;;;;;;3.40;2.73;;;19.90;99.90;;;;;;5073932;28;20190;-51
2021/08/01 06:41:24;;;;;;;3.30;2.70;;;20.00;99.90;;;;;;5075975;28;20174;-48
2021/08/01 06:43:49;;;;;;;3.17;2.70;;;19.80;99.90;;;;;;5075858;28;20187;-49
2021/08/01 06:46:16;;;;;;;3.47;2.73;;;19.90;99.90;;;;;;5075623;28;20186;-49
2021/08/01 06:48:41;;;;;;;3.80;3.00;;;20.10;99.90;;;;;;5073358;28;20170;-56
2021/08/01 06:51:07;;;;;;;6.83;2.77;;;20.20;99.90;;;;;;5073323;28;20205;-51
2021/08/01 06:53:33;;;;;;;3.30;3.00;;;20.30;99.90;;;;;;5073964;28;20202;-49
2021/08/01 06:55:58;;;;;;;3.90;3.10;;;20.30;99.90;;;;;;5073773;28;20194;-49
2021/08/01 06:58:24;;;;;;;4.87;3.13;;;20.20;99.90;;;;;;5073712;28;20167;-51
2021/08/01 07:00:51;;;;;;;4.33;3.03;;;20.00;99.90;;;;;;5074089;28;20271;-51
2021/08/01 07:03:17;;;;;;;4.53;3.50;;;19.80;99.90;;;;;;5075423;28;20562;-50
2021/08/01 07:05:43;;;;;;;4.00;3.50;;;19.60;99.90;;;;;;5063986;28;20670;-51
2021/08/01 07:08:09;;;;;;;4.60;3.50;;;19.30;99.90;;;;;;5074377;28;20530;-50
2021/08/01 07:10:35;;;;;;;4.60;3.20;;;18.90;99.90;;;;;;5075221;28;20202;-54
2021/08/01 07:13:03;;;;;;;4.93;3.60;;;18.90;99.90;;;;;;5075020;28;20193;-54
2021/08/01 07:15:28;;;;;;;4.63;3.27;;;18.30;99.90;;;;;;5075191;28;20166;-57
2021/08/01 07:17:59;;;;;;;4.33;3.50;;;18.30;99.90;;;;;;5074134;28;20257;-52
2021/08/01 07:20:26;;;;;;;4.63;3.43;;;18.30;99.90;;;;;;5075356;28;20177;-56
2021/08/01 07:22:53;;;;;;;3.50;3.20;;;18.30;99.90;;;;;;5060815;28;20199;-57
2021/08/01 07:25:20;;;;;;;5.37;3.47;;;18.30;99.90;;;;;;5075645;28;20170;-52
2021/08/01 07:27:46;;;;;;;5.03;3.40;;;18.30;99.90;;;;;;5074461;28;20886;-55
2021/08/01 07:30:12;;;;;;;4.77;3.30;;;18.30;99.90;;;;;;5074464;28;20203;-56
2021/08/01 07:32:38;;;;;;;6.83;3.80;;;18.30;99.90;;;;;;5074895;28;20170;-52
2021/08/01 07:35:04;;;;;;;4.47;3.50;;;18.20;99.90;;;;;;5075604;28;20184;-52
2021/08/01 07:37:29;;;;;;;7.60;3.87;;;18.20;99.90;;;;;;5058321;28;20183;-56
2021/08/01 07:39:55;;;;;;;3.63;3.10;;;18.20;99.90;;;;;;5074980;28;20186;-52
2021/08/01 07:42:20;;;;;;;4.03;3.20;;;18.10;99.90;;;;;;5074908;28;20531;-50
2021/08/01 07:44:50;;;;;;;3.50;3.13;;;18.10;99.90;;;;;;5074757;28;20638;-50
2021/08/01 07:47:17;;;;;;;3.40;2.90;;;18.10;99.90;;;;;;5075027;28;20189;-49
2021/08/01 07:49:49;;;;;;;3.43;2.80;;;18.10;99.90;;;;;;5073335;28;20561;-49
2021/08/01 07:52:15;;;;;;;4.20;2.90;;;18.00;99.90;;;;;;5074040;28;20178;-52
2021/08/01 07:54:40;;;;;;;3.00;2.70;;;17.90;99.90;;;;;;5074294;28;20203;-51
2021/08/01 07:57:07;;;;;;;4.07;2.40;;;17.80;99.90;;;;;;5075214;28;20167;-52
2021/08/01 07:59:36;;;;;;;4.50;2.60;;;17.60;99.90;;;;;;5071636;28;20179;-55
2021/08/01 08:02:02;;;;;;;2.77;2.53;;;17.50;99.90;;;;;;5065044;28;20172;-53
2021/08/01 08:04:28;;;;;;;2.87;2.60;;;17.40;99.90;;;;;;5067133;28;20313;-50
2021/08/01 08:06:56;;;;;;;2.87;2.67;;;17.40;99.90;;;;;;5069258;28;20178;-51
2021/08/01 08:09:26;;;;;;;3.63;2.93;;;17.30;99.90;;;;;;5063816;28;20198;-54
2021/08/01 08:11:51;;;;;;;3.43;2.40;;;18.20;99.90;;;;;;5074238;28;20185;-54
2021/08/01 08:14:17;;;;;;;3.90;3.00;;;17.30;99.90;;;;;;5073276;28;20209;-57
2021/08/01 08:16:42;;;;;;;3.10;2.80;;;17.30;99.90;;;;;;5073196;28;20586;-54
2021/08/01 08:19:08;;;;;;;4.23;2.57;;;17.30;99.90;;;;;;5072378;28;20294;-55
2021/08/01 08:21:33;;;;;;;2.73;2.53;;;17.40;99.90;;;;;;5074232;28;20193;-52
2021/08/01 08:23:59;;;;;;;3.13;2.57;;;17.40;99.90;;;;;;5068697;28;20194;-53
2021/08/01 08:26:25;;;;;;;4.07;2.63;;;17.30;99.90;;;;;;5068552;28;20191;-54
2021/08/01 08:28:50;;;;;;;3.40;2.63;;;17.30;99.90;;;;;;5049303;28;20566;-57
2021/08/01 08:31:16;;;;;;;3.03;2.73;;;17.30;99.90;;;;;;5064882;28;20205;-53
2021/08/01 08:33:42;;;;;;;3.00;2.53;;;17.30;99.90;;;;;;5074548;28;20194;-53
2021/08/01 08:36:08;;;;;;;3.53;2.80;;;17.50;99.90;;;;;;5074739;28;20181;-51
2021/08/01 08:38:33;;;;;;;2.80;2.60;;;17.50;99.90;;;;;;5068345;28;20270;-50
2021/08/01 08:40:59;;;;;;;2.73;2.53;;;17.60;99.90;;;;;;5072501;28;20190;-55
2021/08/01 08:43:24;;;;;;;2.90;2.70;;;17.80;99.90;;;;;;5073880;28;20546;-52
2021/08/01 08:45:52;;;;;;;2.63;2.43;;;17.70;99.90;;;;;;5073533;28;20197;-56
2021/08/01 08:48:18;;;;;;;3.83;2.87;;;17.70;99.90;;;;;;5073174;28;20232;-56
2021/08/01 08:50:49;;;;;;;3.53;2.70;;;17.60;99.90;;;;;;5072184;28;20340;-53
2021/08/01 08:53:20;;;;;;;4.43;2.70;;;17.50;99.90;;;;;;5068905;28;20198;-52
2021/08/01 08:55:47;;;;;;;6.03;3.27;;;17.30;99.90;;;;;;5073621;28;20163;-53
2021/08/01 08:58:19;;;;;;;3.47;2.63;;;17.20;99.90;;;;;;5070021;28;20205;-50
2021/08/01 09:00:45;;;;;;;4.23;2.73;;;17.10;99.90;;;;;;5052677;28;20546;-50
2021/08/01 09:03:10;;;;;;;2.63;2.40;;;17.20;99.90;;;;;;5061762;28;20674;-54
2021/08/01 09:05:36;;;;;;;3.47;2.60;;;17.30;99.90;;;;;;5053134;28;20175;-56
2021/08/01 09:08:01;;;;;;;2.60;2.40;;;17.30;99.90;;;;;;5052758;28;20410;-48
2021/08/01 09:10:30;;;;;;;3.47;2.33;;;17.10;99.90;;;;;;5054879;28;20689;-49
2021/08/01 09:12:57;;;;;;;2.73;2.27;;;17.10;99.90;;;;;;5052973;28;20225;-48
2021/08/01 09:15:28;;;;;;;2.40;2.20;;;17.10;99.90;;;;;;5053436;28;20263;-50
2021/08/01 09:17:55;;;;;;;3.47;1.97;;;16.90;99.90;;;;;;5052839;28;20216;-56
2021/08/01 09:20:25;;;;;;;6.87;2.00;;;16.80;99.90;;;;;;5053226;28;20183;-50
2021/08/01 09:23:07;;;;;;;1.73;1.63;;;16.80;99.90;;;;;;5053215;28;20738;-57
2021/08/01 09:25:35;;;;;;;3.67;1.87;;;16.80;99.90;;;;;;5053343;28;20593;-49
2021/08/01 09:28:08;;;;;;;1.70;1.60;;;16.80;99.90;;;;;;5053300;28;20584;-48
2021/08/01 09:30:49;;;;;;;1.50;1.40;;;16.70;99.90;;;;;;5053131;28;20209;-52
2021/08/01 09:33:34;;;;;;;1.67;1.57;;;16.50;99.90;;;;;;5055654;28;20198;-50
2021/08/01 09:36:18;;;;;;;1.67;1.57;;;16.40;99.90;;;;;;5070958;28;20177;-50
2021/08/01 09:38:57;;;;;;;1.80;1.70;;;16.40;99.90;;;;;;5076594;28;20206;-52
2021/08/01 09:41:35;;;;;;;1.60;1.50;;;16.60;99.90;;;;;;5078143;28;20181;-51
2021/08/01 09:44:07;;;;;;;1.73;1.63;;;16.80;99.90;;;;;;5085198;28;20285;-52
2021/08/01 09:46:47;;;;;;;3.17;1.80;;;16.90;99.90;;;;;;5062488;28;20538;-52
2021/08/01 09:49:15;;;;;;;1.97;1.77;;;16.90;99.90;;;;;;5072603;28;20200;-52
2021/08/01 09:51:42;;;;;;;1.17;1.13;;;16.80;99.90;;;;;;5072919;28;20704;-50
2021/08/01 09:54:10;;;;;;;1.60;1.50;;;17.00;99.90;;;;;;5073595;28;20214;-52
2021/08/01 09:56:37;;;;;;;1.60;1.50;;;17.20;99.90;;;;;;5073081;28;20655;-53
2021/08/01 09:59:03;;;;;;;3.07;1.30;;;17.30;99.90;;;;;;5073338;28;20185;-55
2021/08/01 10:01:28;;;;;;;1.57;1.47;;;17.40;99.90;;;;;;5073000;28;20185;-50
2021/08/01 10:03:54;;;;;;;1.60;1.50;;;17.40;99.90;;;;;;5071306;28;20297;-49
2021/08/01 10:06:22;;;;;;;1.80;1.30;;;17.40;99.90;;;;;;5073040;28;20242;-49
2021/08/01 10:08:49;;;;;;;3.80;1.53;;;17.50;99.90;;;;;;5072704;28;20210;-53
2021/08/01 10:11:17;;;;;;;1.40;1.30;;;17.60;99.90;;;;;;5072827;28;20213;-55
2021/08/01 10:13:45;;;;;;;3.03;1.47;;;17.80;99.90;;;;;;5075008;28;20244;-56
2021/08/01 10:16:11;;;;;;;1.40;1.20;;;17.90;99.90;;;;;;5075998;28;20262;-49
2021/08/01 10:18:39;;;;;;;1.20;1.20;;;17.90;99.90;;;;;;5075980;28;20642;-50
2021/08/01 10:21:06;;;;;;;1.57;1.20;;;17.70;99.90;;;;;;5076447;28;20209;-51
2021/08/01 10:23:45;;;;;;;2.60;1.30;;;17.60;99.90;;;;;;5076199;28;20617;-49
2021/08/01 10:26:10;;;;;;;1.10;1.00;;;17.50;99.90;;;;;;5076375;28;20567;-50
2021/08/01 10:29:06;;;;;;;1.60;1.20;;;17.60;99.90;;;;;;5076290;28;20694;-54
2021/08/01 10:31:41;;;;;;;1.30;1.20;;;17.40;99.90;;;;;;5074191;28;20213;-52
2021/08/01 10:34:19;;;;;;;1.00;1.00;;;17.30;99.90;;;;;;5075887;28;20197;-52
2021/08/01 10:36:49;;;;;;;1.23;1.13;;;17.20;99.90;;;;;;5076544;28;20218;-50
2021/08/01 10:39:17;;;;;;;1.30;1.20;;;17.20;99.90;;;;;;5057642;28;20188;-50
2021/08/01 10:41:43;;;;;;;1.20;1.13;;;17.20;99.90;;;;;;5058667;28;20187;-49
2021/08/01 10:44:11;;;;;;;1.00;1.00;;;17.30;99.90;;;;;;5075587;28;20587;-56
2021/08/01 10:46:39;;;;;;;1.20;1.00;;;17.20;99.90;;;;;;5069264;28;20520;-56
2021/08/01 10:49:07;;;;;;;1.40;1.30;;;17.10;99.90;;;;;;5056012;28;20186;-50
2021/08/01 10:51:33;;;;;;;2.10;1.30;;;17.10;99.90;;;;;;5070736;28;20185;-49
2021/08/01 10:54:21;;;;;;;1.00;1.00;;;17.20;99.90;;;;;;5074999;28;20196;-52
2021/08/01 10:56:55;;;;;;;1.20;1.10;;;17.40;99.90;;;;;;5071694;28;20258;-53
2021/08/01 10:59:56;;;;;;;1.30;1.20;;;17.40;99.90;;;;;;5054465;28;20538;-51
2021/08/01 11:02:25;;;;;;;1.13;1.13;;;17.40;99.90;;;;;;5055683;28;20171;-51
2021/08/01 11:04:52;;;;;;;2.83;1.30;;;17.50;99.90;;;;;;5055610;28;20198;-56
2021/08/01 11:07:27;;;;;;;1.10;1.00;;;17.60;99.90;;;;;;5055739;28;20176;-54
2021/08/01 11:10:10;;;;;;;1.90;1.00;;;17.70;99.90;;;;;;5057036;28;20206;-54
2021/08/01 11:12:36;;;;;;;1.10;1.00;;;18.00;99.90;;;;;;5055432;28;20599;-50
2021/08/01 11:15:04;;;;;;;0.70;0.70;;;18.10;99.90;;;;;;5055370;28;20206;-51
2021/08/01 11:18:01;;;;;;;1.23;0.83;;;18.40;99.90;;;;;;5054917;28;20269;-56
2021/08/01 11:20:32;;;;;;;0.90;0.80;;;18.70;99.90;;;;;;5047164;28;20694;-56
2021/08/01 11:23:00;;;;;;;1.10;0.83;;;18.80;99.90;;;;;;5064491;28;20582;-50
2021/08/01 11:25:36;;;;;;;0.73;0.63;;;19.40;99.90;;;;;;5075512;28;20182;-51
2021/08/01 11:28:11;;;;;;;0.70;0.70;;;20.20;99.90;;;;;;5075251;28;20208;-51
2021/08/01 11:30:58;;;;;;;0.63;0.52;;;21.00;99.90;;;;;;5075511;28;20240;-51
2021/08/01 11:33:30;;;;;;;1.60;0.50;;;21.60;99.90;;;;;;5075019;28;20204;-58
2021/08/01 11:36:15;;;;;;;0.75;0.68;;;21.80;99.90;;;;;;5072934;28;20191;-51
2021/08/01 11:38:53;;;;;;;0.50;0.50;;;22.20;99.90;;;;;;5075449;28;20174;-55
2021/08/01 11:41:33;;;;;;;1.70;0.70;;;22.60;99.90;;;;;;5074680;28;20193;-52
2021/08/01 11:44:18;;;;;;;1.33;0.60;;;22.90;99.90;;;;;;5074918;28;20263;-50
2021/08/01 11:46:46;;;;;;;0.80;0.60;;;22.90;99.90;;;;;;5075115;28;20202;-58
2021/08/01 11:49:12;;;;;;;0.80;0.60;;;23.20;99.90;;;;;;5074606;28;20668;-55
2021/08/01 11:51:43;;;;;;;0.60;0.60;;;23.40;99.90;;;;;;5058274;28;20267;-56
2021/08/01 11:54:13;;;;;;;2.05;0.63;;;23.20;99.90;;;;;;5066640;28;20281;-53
2021/08/01 11:56:40;;;;;;;0.50;0.50;;;22.80;99.90;;;;;;5070700;28;20174;-57
2021/08/01 11:59:12;;;;;;;0.68;0.65;;;22.70;99.90;;;;;;5059332;28;20187;-54
2021/08/01 12:01:39;;;;;;;0.80;0.80;;;22.60;99.90;;;;;;5074619;28;20642;-61
2021/08/01 12:04:11;;;;;;;0.73;0.70;;;22.60;99.90;;;;;;5074443;28;20274;-61
2021/08/01 12:06:39;;;;;;;0.80;0.80;;;22.80;99.90;;;;;;5072545;28;20596;-57
2021/08/01 12:09:30;;;;;;;0.60;0.57;;;23.00;99.90;;;;;;5074859;28;20190;-57
2021/08/01 12:12:01;;;;;;;0.50;0.50;;;23.10;99.90;;;;;;5073382;28;20190;-55
2021/08/01 12:14:34;;;;;;;0.60;0.60;;;22.90;99.90;;;;;;5073944;28;20195;-52
2021/08/01 12:17:08;;;;;;;0.40;0.40;;;22.70;99.90;;;;;;5072567;28;20649;-52
2021/08/01 12:19:47;;;;;;;0.30;0.30;;;22.70;99.90;;;;;;5074244;28;20193;-50
2021/08/01 12:22:21;;;;;;;1.08;0.60;;;22.80;99.90;;;;;;5074539;28;20173;-58
2021/08/01 12:24:49;;;;;;;1.08;0.50;;;22.70;99.90;;;;;;5073284;28;20177;-51
2021/08/01 12:27:21;;;;;;;0.50;0.50;;;22.80;99.90;;;;;;5074813;28;20258;-56
2021/08/01 12:29:49;;;;;;;1.75;0.60;;;22.30;99.90;;;;;;5073729;28;20187;-53
2021/08/01 12:32:19;;;;;;;0.95;0.63;;;21.80;99.90;;;;;;5073197;28;20178;-51
2021/08/01 12:34:45;;;;;;;0.70;0.70;;;21.80;99.90;;;;;;5073778;28;20190;-52
2021/08/01 12:37:11;;;;;;;0.55;0.55;;;21.90;99.90;;;;;;5074569;28;20242;-56
2021/08/01 12:39:48;;;;;;;1.83;1.08;;;21.60;99.90;;;;;;5073930;28;20589;-53
2021/08/01 12:42:14;;;;;;;0.75;0.75;;;21.10;99.90;;;;;;5074171;28;20172;-57
2021/08/01 12:44:50;;;;;;;0.68;0.68;;;20.60;99.90;;;;;;5074212;28;20205;-59
2021/08/01 12:47:15;;;;;;;0.85;0.85;;;20.40;99.90;;;;;;5074564;28;20187;-53
2021/08/01 12:49:41;;;;;;;0.70;0.70;;;20.30;99.90;;;;;;5073710;28;20198;-53
2021/08/01 12:52:07;;;;;;;0.70;0.70;;;20.00;99.90;;;;;;5073767;28;20179;-50
2021/08/01 12:54:33;;;;;;;0.70;0.70;;;19.90;99.90;;;;;;5074096;28;20282;-53